RONIN01 RODN-RODN

Flight info

Callsign RONIN01
Flight time N/A
Altitude 30000
Route VFR
Aircraft E3TF/M-SDFGHRWY/C

Departure

Time 2026-04-19 05:09
Airport Kadena Air Base (RODN)

Arrival

Time N/A
Airport Kadena Air Base (RODN)
Time Latitude Longitude Altitude Speed Heading
2026-04-19 04:51 26.35974 127.75891 91 ft 0 kts 142°
2026-04-19 04:59 26.35969 127.75896 91 ft 4 kts 142°
2026-04-19 04:59 26.35933 127.75923 92 ft 4 kts 167°
2026-04-19 04:59 26.35910 127.75911 91 ft 6 kts 221°
2026-04-19 05:00 26.35876 127.75868 87 ft 9 kts 231°
2026-04-19 05:00 26.35824 127.75802 89 ft 12 kts 217°
2026-04-19 05:00 26.35771 127.75796 88 ft 7 kts 154°
2026-04-19 05:00 26.35715 127.75841 92 ft 14 kts 142°
2026-04-19 05:01 26.35627 127.75920 91 ft 17 kts 139°
2026-04-19 05:01 26.35538 127.75982 90 ft 13 kts 180°
2026-04-19 05:01 26.35486 127.75942 90 ft 10 kts 232°
2026-04-19 05:01 26.35434 127.75869 89 ft 13 kts 232°
2026-04-19 05:02 26.35376 127.75784 89 ft 14 kts 233°
2026-04-19 05:02 26.35324 127.75712 89 ft 10 kts 226°
2026-04-19 05:02 26.35274 127.75652 90 ft 11 kts 230°
2026-04-19 05:02 26.35216 127.75574 88 ft 16 kts 231°
2026-04-19 05:03 26.35146 127.75474 91 ft 16 kts 230°
2026-04-19 05:03 26.35068 127.75369 89 ft 19 kts 230°
2026-04-19 05:03 26.34985 127.75251 90 ft 20 kts 233°
2026-04-19 05:03 26.34911 127.75154 92 ft 13 kts 230°
2026-04-19 05:04 26.34856 127.75079 88 ft 12 kts 232°
2026-04-19 05:04 26.34817 127.75040 91 ft 5 kts 193°
2026-04-19 05:04 26.34785 127.75041 89 ft 5 kts 158°
2026-04-19 05:04 26.34759 127.75060 88 ft 0 kts 141°
2026-04-19 05:06 26.34756 127.75063 89 ft 3 kts 141°
2026-04-19 05:07 26.34718 127.75097 90 ft 11 kts 143°
2026-04-19 05:07 26.34654 127.75156 86 ft 9 kts 122°
2026-04-19 05:07 26.34652 127.75184 85 ft 2 kts 57°
2026-04-19 05:07 26.34657 127.75192 84 ft 0 kts 51°
2026-04-19 05:08 26.34658 127.75193 81 ft 0 kts 51°
2026-04-19 05:08 26.34667 127.75206 86 ft 14 kts 51°
2026-04-19 05:08 26.34893 127.75517 88 ft 88 kts 51°
2026-04-19 05:09 26.35413 127.76229 85 ft 146 kts 51°
2026-04-19 05:09 26.36154 127.77246 104 ft 188 kts 48°
2026-04-19 05:09 26.36989 127.78440 518 ft 203 kts 50°
2026-04-19 05:09 26.37874 127.79685 1224 ft 204 kts 44°
2026-04-19 05:10 26.39098 127.80404 2172 ft 201 kts
2026-04-19 05:10 26.40525 127.80305 2815 ft 224 kts 351°
2026-04-19 05:10 26.42216 127.80154 2831 ft 253 kts 353°
2026-04-19 05:10 26.43978 127.80029 2954 ft 252 kts 354°
2026-04-19 05:11 26.45691 127.79642 3004 ft 251 kts 335°
2026-04-19 05:11 26.47099 127.78566 2999 ft 244 kts 310°
2026-04-19 05:11 26.47980 127.76987 3042 ft 240 kts 289°
2026-04-19 05:11 26.48499 127.75223 3472 ft 249 kts 285°
2026-04-19 05:12 26.49012 127.73272 3963 ft 268 kts 284°
2026-04-19 05:12 26.49524 127.71268 4655 ft 267 kts 283°
2026-04-19 05:12 26.50042 127.69278 5372 ft 269 kts 283°
2026-04-19 05:12 26.50558 127.67265 6110 ft 269 kts 284°
2026-04-19 05:13 26.51057 127.65259 6725 ft 276 kts 283°
2026-04-19 05:13 26.51582 127.63167 7269 ft 282 kts 283°
2026-04-19 05:13 26.52123 127.61052 7838 ft 284 kts 283°
2026-04-19 05:13 26.52681 127.58927 8461 ft 288 kts 283°
2026-04-19 05:14 26.53263 127.56774 9105 ft 290 kts 283°
2026-04-19 05:14 26.53866 127.54615 9793 ft 292 kts 283°
2026-04-19 05:14 26.54491 127.52429 10446 ft 296 kts 283°
2026-04-19 05:14 26.55128 127.50227 11111 ft 300 kts 284°
2026-04-19 05:15 26.55776 127.48001 11800 ft 303 kts 284°
2026-04-19 05:15 26.56447 127.45694 12396 ft 326 kts 284°
2026-04-19 05:15 26.57154 127.43213 12862 ft 348 kts 284°
2026-04-19 05:15 26.57896 127.40597 13547 ft 359 kts 284°
2026-04-19 05:16 26.58649 127.37927 14253 ft 362 kts 284°
2026-04-19 05:16 26.59408 127.35237 14936 ft 364 kts 284°
2026-04-19 05:16 26.60174 127.32523 15633 ft 368 kts 284°
2026-04-19 05:16 26.60949 127.29772 16314 ft 373 kts 284°
2026-04-19 05:17 26.61741 127.26976 16834 ft 380 kts 284°
2026-04-19 05:17 26.62548 127.24135 17300 ft 385 kts 285°
2026-04-19 05:17 26.63706 127.21395 17772 ft 397 kts 298°
2026-04-19 05:17 26.65484 127.19030 18219 ft 409 kts 312°
2026-04-19 05:18 26.67835 127.17146 18624 ft 424 kts 326°
2026-04-19 05:18 26.70552 127.15771 19054 ft 433 kts 332°
2026-04-19 05:18 26.73376 127.14540 19471 ft 438 kts 333°
2026-04-19 05:18 26.76253 127.13339 19897 ft 443 kts 334°
2026-04-19 05:19 26.79158 127.12150 20322 ft 446 kts 334°
2026-04-19 05:19 26.82095 127.10966 20778 ft 453 kts 334°
2026-04-19 05:19 26.85089 127.09769 21350 ft 460 kts 334°
2026-04-19 05:19 26.88123 127.08564 21924 ft 465 kts 334°
2026-04-19 05:20 26.91199 127.07350 22527 ft 470 kts 334°
2026-04-19 05:20 26.94305 127.06129 23121 ft 476 kts 334°
2026-04-19 05:20 26.97450 127.04899 23694 ft 481 kts 334°
2026-04-19 05:20 27.00597 127.03675 24206 ft 486 kts 334°
2026-04-19 05:21 27.03821 127.02434 24711 ft 491 kts 334°
2026-04-19 05:21 27.07071 127.01198 25254 ft 495 kts 334°
2026-04-19 05:21 27.10359 126.99964 25802 ft 499 kts 334°
2026-04-19 05:21 27.13670 126.98740 26369 ft 502 kts 334°
2026-04-19 05:22 27.17006 126.97525 26927 ft 506 kts 334°
2026-04-19 05:22 27.20325 126.96331 27491 ft 508 kts 334°
2026-04-19 05:22 27.23752 126.95113 28077 ft 511 kts 334°
2026-04-19 05:22 27.27142 126.93925 28689 ft 510 kts 334°
2026-04-19 05:23 27.30543 126.92751 29288 ft 512 kts 334°
2026-04-19 05:23 27.33936 126.91588 29651 ft 519 kts 334°
2026-04-19 05:23 27.37429 126.90395 29841 ft 530 kts 334°
2026-04-19 05:24 27.44541 126.87964 29930 ft 537 kts 334°
2026-04-19 05:24 27.51720 126.85498 29947 ft 542 kts 334°
2026-04-19 05:25 27.58960 126.82996 29950 ft 545 kts 334°
2026-04-19 05:25 27.66221 126.80483 29961 ft 547 kts 334°
2026-04-19 05:26 27.73522 126.77952 29951 ft 548 kts 334°
2026-04-19 05:26 27.80767 126.75431 29949 ft 548 kts 334°
2026-04-19 05:27 27.88056 126.72885 29994 ft 547 kts 334°
2026-04-19 05:27 27.95337 126.70331 29960 ft 547 kts 334°
2026-04-19 05:28 28.02323 126.67248 29939 ft 526 kts 320°
2026-04-19 05:28 28.05244 126.64857 29951 ft 510 kts 309°
2026-04-19 05:28 28.07794 126.62104 29957 ft 505 kts 305°
2026-04-19 05:29 28.12642 126.56416 29960 ft 510 kts 304°
2026-04-19 05:29 28.17506 126.50542 29953 ft 510 kts 304°
2026-04-19 05:30 28.22325 126.44676 29965 ft 506 kts 304°
2026-04-19 05:30 28.27108 126.38833 29955 ft 505 kts 303°
2026-04-19 05:31 28.31893 126.32977 29957 ft 505 kts 304°
2026-04-19 05:31 28.36645 126.27149 29955 ft 506 kts 303°
2026-04-19 05:32 28.41410 126.21290 29959 ft 501 kts 304°
2026-04-19 05:32 28.46118 126.15468 29953 ft 500 kts 303°
2026-04-19 05:33 28.50826 126.09628 29959 ft 501 kts 303°
2026-04-19 05:33 28.55534 126.03777 29952 ft 501 kts 303°
2026-04-19 05:34 28.60204 125.97970 29952 ft 500 kts 303°
2026-04-19 05:34 28.64909 125.92117 29952 ft 500 kts 303°
2026-04-19 05:35 28.69611 125.86260 29951 ft 500 kts 303°
2026-04-19 05:35 28.74307 125.80403 29953 ft 501 kts 303°
2026-04-19 05:36 28.79008 125.74536 29977 ft 500 kts 304°
2026-04-19 05:36 28.83664 125.68688 29953 ft 497 kts 303°
2026-04-19 05:37 28.88301 125.62840 29953 ft 497 kts 303°
2026-04-19 05:37 28.92912 125.57018 29952 ft 497 kts 303°
2026-04-19 05:38 28.97560 125.51137 29964 ft 497 kts 303°
2026-04-19 05:38 29.02154 125.45259 29960 ft 494 kts 303°
2026-04-19 05:39 29.06699 125.39392 29951 ft 492 kts 303°
2026-04-19 05:39 29.11206 125.33556 29950 ft 493 kts 303°
2026-04-19 05:40 29.15687 125.27783 29933 ft 464 kts 303°
2026-04-19 05:40 29.17781 125.25125 29935 ft 449 kts 303°
2026-04-19 05:40 29.19862 125.22483 29947 ft 444 kts 304°
2026-04-19 05:41 29.23730 125.17019 29948 ft 437 kts 292°
2026-04-19 05:41 29.24897 125.13815 29955 ft 432 kts 280°
2026-04-19 05:41 29.25546 125.10477 29963 ft 430 kts 276°
2026-04-19 05:42 29.27029 125.04978 29957 ft 442 kts 289°
2026-04-19 05:42 29.30872 124.97883 29963 ft 456 kts 302°
2026-04-19 05:43 29.34558 124.93463 29953 ft 465 kts 310°
2026-04-19 05:43 29.40391 124.87779 29978 ft 478 kts 315°
2026-04-19 05:44 29.44978 124.84177 29947 ft 485 kts 323°
2026-04-19 05:44 29.51210 124.80988 29944 ft 497 kts 334°
2026-04-19 05:45 29.58001 124.79052 29941 ft 508 kts 343°
2026-04-19 05:45 29.65103 124.78340 29941 ft 516 kts 352°
2026-04-19 05:46 29.72313 124.78867 29935 ft 526 kts
2026-04-19 05:46 29.79488 124.80741 29935 ft 533 kts 11°
2026-04-19 05:47 29.86382 124.83919 29935 ft 541 kts 21°
2026-04-19 05:47 29.92885 124.88303 29940 ft 540 kts 30°
2026-04-19 05:48 29.98888 124.93554 29929 ft 544 kts 37°
2026-04-19 05:48 30.01716 124.96517 29933 ft 557 kts 40°
2026-04-19 05:48 30.04452 124.99775 29915 ft 567 kts 46°
2026-04-19 05:49 30.09175 125.07121 29936 ft 573 kts 56°
2026-04-19 05:49 30.12928 125.15241 29921 ft 574 kts 66°
2026-04-19 05:50 30.15499 125.23967 29925 ft 574 kts 75°
2026-04-19 05:50 30.17252 125.33016 29920 ft 578 kts 81°
2026-04-19 05:51 30.18159 125.42183 29939 ft 573 kts 89°
2026-04-19 05:51 30.18176 125.51348 29899 ft 568 kts 96°
2026-04-19 05:52 30.17108 125.60348 29909 ft 566 kts 109°
2026-04-19 05:52 30.14508 125.68879 29921 ft 559 kts 118°
2026-04-19 05:53 30.10888 125.76736 29889 ft 547 kts 133°
2026-04-19 05:53 30.05830 125.83119 29916 ft 532 kts 145°
2026-04-19 05:54 29.99973 125.88193 29908 ft 522 kts 155°
2026-04-19 05:54 29.93633 125.92104 29923 ft 512 kts 163°
2026-04-19 05:55 29.87040 125.94807 29915 ft 499 kts 175°
2026-04-19 05:55 29.83636 125.95335 29922 ft 488 kts 184°
2026-04-19 05:55 29.80273 125.95325 29926 ft 482 kts 189°
2026-04-19 05:56 29.73682 125.94470 29913 ft 470 kts 197°
2026-04-19 05:56 29.67484 125.92306 29920 ft 460 kts 208°
2026-04-19 05:57 29.62087 125.88592 29931 ft 453 kts 220°
2026-04-19 05:57 29.57373 125.83855 29908 ft 448 kts 230°
2026-04-19 05:58 29.53809 125.78086 29921 ft 441 kts 241°
2026-04-19 05:58 29.51642 125.71479 29945 ft 447 kts 256°
2026-04-19 05:59 29.50748 125.64345 29934 ft 454 kts 262°
2026-04-19 05:59 29.50505 125.57123 29933 ft 456 kts 267°
2026-04-19 06:00 29.50900 125.49820 29947 ft 459 kts 274°